Time;durP1;ratioP1;P1;durP2;ratioP2;P2;SDS_P1;SDS_P2;PMS_P1;PMS_P2;Temp;Humidity;BMP_temperature;BMP_pressure;BME280_temperature;BME280_humidity;BME280_pressure;Samples;Min_cycle;Max_cycle;Signal;HPM_P1;HPM_P2
2023/08/09 00:01:45;;;;;;;12.47;2.20;;;12.10;99.90;;;;;;5114589;28;20216;-50
2023/08/09 00:04:11;;;;;;;11.13;2.10;;;12.10;99.90;;;;;;5115122;28;20198;-50
2023/08/09 00:06:36;;;;;;;6.73;1.90;;;12.10;99.90;;;;;;5114915;28;20187;-50
2023/08/09 00:09:02;;;;;;;7.37;1.97;;;12.00;99.90;;;;;;5115964;28;20183;-50
2023/08/09 00:11:27;;;;;;;9.00;2.00;;;12.10;99.90;;;;;;5114608;28;20179;-50
2023/08/09 00:13:53;;;;;;;8.90;1.93;;;12.10;78.60;;;;;;5115014;28;20183;-49
2023/08/09 00:16:19;;;;;;;5.30;2.20;;;12.00;90.40;;;;;;5114831;28;20657;-51
2023/08/09 00:18:44;;;;;;;8.90;2.07;;;12.00;99.90;;;;;;5113860;28;20294;-50
2023/08/09 00:21:10;;;;;;;5.43;1.90;;;12.10;99.90;;;;;;5114764;28;20234;-50
2023/08/09 00:23:36;;;;;;;7.23;1.87;;;12.00;99.90;;;;;;5114950;28;20739;-50
2023/08/09 00:26:01;;;;;;;5.83;1.93;;;12.00;99.90;;;;;;5115353;28;20790;-50
2023/08/09 00:28:27;;;;;;;14.30;2.00;;;12.00;99.90;;;;;;5113889;28;20194;-51
2023/08/09 00:30:52;;;;;;;4.33;1.50;;;12.10;99.90;;;;;;5114619;28;20186;-50
2023/08/09 00:33:18;;;;;;;2.90;1.67;;;12.10;99.90;;;;;;5113689;28;20271;-51
2023/08/09 00:35:43;;;;;;;6.03;1.67;;;12.00;99.90;;;;;;5114008;28;20187;-50
2023/08/09 00:38:09;;;;;;;8.23;2.33;;;12.00;1.00;;;;;;5099388;28;20528;-50
2023/08/09 00:40:36;;;;;;;8.87;2.23;;;12.00;1.00;;;;;;5113480;28;20265;-50
2023/08/09 00:43:02;;;;;;;6.50;1.83;;;12.00;1.00;;;;;;5114580;28;20298;-50
2023/08/09 00:45:28;;;;;;;7.83;1.90;;;12.00;1.00;;;;;;5114080;28;20483;-50
2023/08/09 00:47:53;;;;;;;5.40;1.77;;;12.00;1.00;;;;;;5114263;28;20444;-49
2023/08/09 00:50:19;;;;;;;7.53;2.20;;;12.00;1.00;;;;;;5113844;28;20178;-51
2023/08/09 00:52:45;;;;;;;5.90;2.00;;;12.00;1.00;;;;;;5114535;28;20179;-49
2023/08/09 00:55:11;;;;;;;9.13;1.97;;;11.90;1.00;;;;;;5114944;28;20413;-50
2023/08/09 00:57:37;;;;;;;5.77;2.00;;;11.90;99.90;;;;;;5113762;28;20234;-51
2023/08/09 01:00:05;;;;;;;9.07;2.57;;;11.80;99.90;;;;;;5114129;28;20477;-50
2023/08/09 01:02:31;;;;;;;6.17;1.87;;;11.80;99.90;;;;;;5113572;28;20288;-51
2023/08/09 01:04:58;;;;;;;10.87;2.53;;;11.80;99.90;;;;;;5112989;28;20444;-50
2023/08/09 01:07:42;;;;;;;6.83;2.50;;;11.80;99.90;;;;;;5112329;28;20437;-50
2023/08/09 01:10:17;;;;;;;9.77;2.03;;;11.80;99.90;;;;;;5114107;28;20796;-49
2023/08/09 01:12:52;;;;;;;13.10;2.90;;;11.80;99.90;;;;;;5113198;28;20429;-50
2023/08/09 01:15:20;;;;;;;11.40;2.87;;;11.80;99.90;;;;;;5113582;28;20446;-50
2023/08/09 01:17:49;;;;;;;6.80;2.03;;;11.80;99.90;;;;;;5114272;28;20780;-49
2023/08/09 01:20:16;;;;;;;4.10;2.30;;;11.80;99.90;;;;;;5114091;28;20597;-50
2023/08/09 01:22:56;;;;;;;6.20;2.20;;;11.80;99.90;;;;;;5115127;28;20477;-49
2023/08/09 01:25:22;;;;;;;3.73;2.23;;;11.70;1.00;;;;;;5114680;28;20413;-50
2023/08/09 01:27:48;;;;;;;8.33;2.20;;;11.70;1.00;;;;;;5112893;28;20441;-50
2023/08/09 01:30:15;;;;;;;11.30;2.30;;;11.70;1.00;;;;;;5114656;28;20271;-50
2023/08/09 01:32:40;;;;;;;4.57;2.20;;;11.70;1.00;;;;;;5114049;28;20440;-49
2023/08/09 01:35:07;;;;;;;8.47;2.10;;;11.70;1.00;;;;;;5112354;28;20503;-50
2023/08/09 01:37:53;;;;;;;7.87;2.23;;;11.70;1.00;;;;;;5113067;28;20643;-49
2023/08/09 01:40:20;;;;;;;5.43;1.97;;;11.70;1.00;;;;;;5102004;28;20442;-49
2023/08/09 01:42:47;;;;;;;8.40;2.13;;;11.70;1.00;;;;;;5113810;28;20999;-48
2023/08/09 01:45:13;;;;;;;9.40;1.93;;;11.60;1.00;;;;;;5114586;28;20510;-50
2023/08/09 01:47:41;;;;;;;9.00;1.90;;;11.60;99.90;;;;;;5113748;28;20767;-48
2023/08/09 01:50:15;;;;;;;6.33;2.00;;;11.60;1.00;;;;;;5114181;28;20428;-49
2023/08/09 01:52:41;;;;;;;5.37;1.60;;;11.60;99.90;;;;;;5113117;28;21433;-50
2023/08/09 01:55:07;;;;;;;15.03;2.07;;;11.50;1.00;;;;;;5113605;28;20439;-49
2023/08/09 01:57:32;;;;;;;9.10;2.10;;;11.60;19.60;;;;;;5112719;28;20528;-50
2023/08/09 01:59:58;;;;;;;7.97;2.50;;;11.50;1.00;;;;;;5112785;28;20607;-49
2023/08/09 02:02:24;;;;;;;7.10;1.70;;;11.50;99.90;;;;;;5113014;28;20225;-50
2023/08/09 02:04:50;;;;;;;7.33;1.93;;;11.50;99.90;;;;;;5111792;28;20527;-50
2023/08/09 02:07:15;;;;;;;11.00;2.00;;;11.50;99.90;;;;;;5112719;28;20177;-50
2023/08/09 02:09:41;;;;;;;5.13;2.03;;;11.50;99.90;;;;;;5112198;28;20586;-49
2023/08/09 02:12:06;;;;;;;5.37;2.20;;;11.50;99.90;;;;;;5112969;28;20187;-49
2023/08/09 02:14:32;;;;;;;5.97;1.90;;;11.50;99.90;;;;;;5114177;28;20676;-48
2023/08/09 02:16:59;;;;;;;7.27;2.40;;;11.50;1.00;;;;;;5111092;28;20187;-50
2023/08/09 02:19:24;;;;;;;2.73;1.87;;;11.50;60.60;;;;;;5114245;28;20194;-50
2023/08/09 02:21:50;;;;;;;9.20;2.43;;;11.50;15.00;;;;;;5111924;28;20479;-48
2023/08/09 02:24:16;;;;;;;7.43;2.07;;;11.50;1.00;;;;;;5114097;28;20723;-48
2023/08/09 02:26:42;;;;;;;3.67;2.20;;;11.60;1.00;;;;;;5113249;28;20178;-49
2023/08/09 02:29:08;;;;;;;5.50;1.97;;;11.60;99.90;;;;;;5113815;28;20586;-49
2023/08/09 02:31:34;;;;;;;9.33;2.33;;;11.70;99.90;;;;;;5112822;28;20578;-49
2023/08/09 02:34:00;;;;;;;11.60;2.10;;;11.60;99.90;;;;;;5112590;28;20518;-50
2023/08/09 02:36:25;;;;;;;7.37;1.80;;;11.70;99.90;;;;;;5112108;28;20429;-49
2023/08/09 02:38:51;;;;;;;6.07;1.90;;;11.70;99.90;;;;;;5112327;28;20194;-50
2023/08/09 02:41:17;;;;;;;8.50;1.93;;;11.70;99.90;;;;;;5112558;28;20239;-49
2023/08/09 02:43:43;;;;;;;7.17;2.70;;;11.60;99.90;;;;;;5111822;28;20597;-49
2023/08/09 02:46:08;;;;;;;9.63;2.20;;;11.60;99.90;;;;;;5112914;28;20437;-49
2023/08/09 02:48:34;;;;;;;8.33;2.70;;;11.50;1.00;;;;;;5112884;28;20189;-50
2023/08/09 02:51:01;;;;;;;10.00;2.80;;;11.50;17.20;;;;;;5112277;28;20211;-49
2023/08/09 02:53:32;;;;;;;13.93;2.60;;;11.50;1.00;;;;;;5116617;28;20217;-49
2023/08/09 02:55:57;;;;;;;9.37;2.57;;;11.50;1.00;;;;;;5116089;28;20436;-49
2023/08/09 02:58:23;;;;;;;9.63;2.67;;;11.50;1.00;;;;;;5116429;28;20536;-49
2023/08/09 03:00:48;;;;;;;11.17;2.60;;;11.50;1.00;;;;;;5115816;28;20635;-48
2023/08/09 03:03:14;;;;;;;7.23;2.63;;;11.50;1.00;;;;;;5116724;28;20557;-49
2023/08/09 03:05:40;;;;;;;10.80;3.10;;;11.50;1.00;;;;;;5115701;28;20187;-49
2023/08/09 03:08:06;;;;;;;8.17;3.17;;;11.40;99.90;;;;;;5116896;28;20511;-49
2023/08/09 03:10:31;;;;;;;10.50;3.50;;;11.40;99.90;;;;;;5115340;28;20182;-49
2023/08/09 03:12:57;;;;;;;8.57;3.50;;;11.40;99.90;;;;;;5117060;28;20522;-48
2023/08/09 03:15:23;;;;;;;10.23;3.10;;;11.40;1.00;;;;;;5116355;28;20186;-49
2023/08/09 03:17:49;;;;;;;8.40;2.97;;;11.40;99.90;;;;;;5117187;28;20187;-48
2023/08/09 03:20:16;;;;;;;10.20;3.20;;;11.40;99.90;;;;;;5115650;28;20430;-50
2023/08/09 03:22:42;;;;;;;6.30;2.83;;;11.40;1.00;;;;;;5116149;28;20553;-48
2023/08/09 03:25:09;;;;;;;12.47;3.50;;;11.50;1.00;;;;;;5116433;28;20450;-49
2023/08/09 03:27:35;;;;;;;6.20;2.90;;;11.50;99.90;;;;;;5116945;28;20413;-48
2023/08/09 03:30:03;;;;;;;4.10;2.60;;;11.40;1.00;;;;;;5115561;28;20498;-49
2023/08/09 03:32:29;;;;;;;12.50;3.30;;;11.50;1.00;;;;;;5114224;28;20793;-49
2023/08/09 03:34:54;;;;;;;13.13;3.73;;;11.40;1.00;;;;;;5115213;28;20524;-49
2023/08/09 03:37:20;;;;;;;7.43;3.43;;;11.40;1.00;;;;;;5115978;28;20181;-49
2023/08/09 03:39:46;;;;;;;6.43;3.47;;;11.40;1.00;;;;;;5115729;28;20707;-49
2023/08/09 03:42:11;;;;;;;14.30;4.57;;;11.50;1.00;;;;;;5116116;28;20292;-48
2023/08/09 03:44:37;;;;;;;10.50;3.10;;;11.40;1.00;;;;;;5114719;28;20190;-49
2023/08/09 03:47:02;;;;;;;9.50;4.10;;;11.40;1.00;;;;;;5115252;28;20587;-49
2023/08/09 03:49:29;;;;;;;6.30;3.27;;;11.40;99.90;;;;;;5116278;28;20176;-49
2023/08/09 03:51:54;;;;;;;9.90;3.57;;;11.40;1.00;;;;;;5114455;28;20199;-49
2023/08/09 03:54:20;;;;;;;16.50;3.57;;;11.50;1.00;;;;;;5115109;28;20433;-49
2023/08/09 03:56:46;;;;;;;12.30;3.53;;;11.50;1.00;;;;;;5116233;28;20178;-48
2023/08/09 03:59:11;;;;;;;12.10;3.60;;;11.50;1.00;;;;;;5114965;28;20701;-48
2023/08/09 04:01:37;;;;;;;11.73;3.50;;;11.50;1.00;;;;;;5114937;28;20176;-48
2023/08/09 04:04:03;;;;;;;6.57;3.50;;;11.60;99.90;;;;;;5115153;28;20221;-49
2023/08/09 04:06:29;;;;;;;11.93;3.53;;;11.60;1.00;;;;;;5115146;28;20523;-48
2023/08/09 04:08:55;;;;;;;13.73;3.37;;;11.60;1.00;;;;;;5115212;28;20427;-49
2023/08/09 04:11:20;;;;;;;5.63;3.30;;;11.70;99.90;;;;;;5113927;28;20174;-49
2023/08/09 04:13:46;;;;;;;8.80;3.20;;;11.70;99.90;;;;;;5113207;28;20607;-48
2023/08/09 04:16:12;;;;;;;9.67;3.53;;;11.80;71.80;;;;;;5114911;28;20182;-49
2023/08/09 04:18:38;;;;;;;12.27;4.07;;;11.80;1.00;;;;;;5115976;28;20187;-48
2023/08/09 04:21:03;;;;;;;9.23;3.53;;;11.80;1.00;;;;;;5113200;28;20230;-49
2023/08/09 04:23:29;;;;;;;10.63;2.87;;;11.80;1.00;;;;;;5116726;28;20452;-55
2023/08/09 04:25:57;;;;;;;6.87;3.00;;;11.80;1.00;;;;;;5115236;28;20183;-49
2023/08/09 04:28:23;;;;;;;9.10;3.50;;;11.90;1.00;;;;;;5116050;28;20182;-50
2023/08/09 04:30:48;;;;;;;5.70;2.53;;;11.90;1.00;;;;;;5114871;28;20423;-48
2023/08/09 04:33:14;;;;;;;7.70;2.97;;;11.90;1.00;;;;;;5114888;28;20574;-48
2023/08/09 04:35:42;;;;;;;4.57;2.63;;;11.90;1.00;;;;;;5114589;28;20182;-48
2023/08/09 04:38:07;;;;;;;10.70;2.70;;;11.90;1.00;;;;;;5115250;28;20270;-49
2023/08/09 04:40:34;;;;;;;6.63;2.97;;;11.90;1.00;;;;;;5114101;28;20590;-49
2023/08/09 04:43:00;;;;;;;8.47;3.30;;;12.00;1.00;;;;;;5112145;28;20245;-49
2023/08/09 04:45:26;;;;;;;8.83;3.37;;;12.00;99.90;;;;;;5114685;28;20478;-49
2023/08/09 04:47:52;;;;;;;7.30;2.77;;;12.00;99.90;;;;;;5114656;28;20184;-49
2023/08/09 04:50:19;;;;;;;9.47;3.47;;;12.10;99.90;;;;;;5114667;28;20234;-48
2023/08/09 04:52:45;;;;;;;11.00;2.87;;;12.10;99.90;;;;;;5114498;28;20433;-49
2023/08/09 04:55:11;;;;;;;3.80;2.73;;;12.20;99.90;;;;;;5112308;28;20436;-49
2023/08/09 04:57:37;;;;;;;6.10;2.73;;;12.20;99.90;;;;;;5112824;28;20194;-49
2023/08/09 05:00:03;;;;;;;8.03;2.40;;;12.20;99.90;;;;;;5113753;28;20431;-48
2023/08/09 05:02:29;;;;;;;6.70;2.70;;;12.30;99.90;;;;;;5113381;28;20457;-49
2023/08/09 05:04:54;;;;;;;8.17;3.10;;;12.40;99.90;;;;;;5115486;28;20416;-50
2023/08/09 05:07:20;;;;;;;6.87;2.67;;;12.40;99.90;;;;;;5113928;28;20194;-48
2023/08/09 05:09:45;;;;;;;8.53;3.00;;;12.40;1.00;;;;;;5114158;28;20549;-48
2023/08/09 05:12:11;;;;;;;15.50;2.60;;;12.50;99.90;;;;;;5114098;28;20186;-48
2023/08/09 05:14:37;;;;;;;10.93;2.80;;;12.60;1.00;;;;;;5114616;28;20217;-49
2023/08/09 05:17:03;;;;;;;13.87;2.80;;;12.60;99.90;;;;;;5112267;28;20282;-50
2023/08/09 05:19:28;;;;;;;6.63;2.60;;;12.70;99.90;;;;;;5113997;28;20684;-48
2023/08/09 05:21:54;;;;;;;6.80;2.53;;;12.90;70.40;;;;;;5113320;28;20702;-48
2023/08/09 05:24:19;;;;;;;4.00;2.50;;;13.00;1.00;;;;;;5099283;28;20205;-49
2023/08/09 05:26:46;;;;;;;8.70;2.80;;;13.10;17.60;;;;;;5113142;28;20179;-48
2023/08/09 05:29:11;;;;;;;6.40;2.00;;;13.10;1.00;;;;;;5112610;28;20184;-50
2023/08/09 05:31:37;;;;;;;8.33;2.70;;;13.10;1.00;;;;;;5114202;28;20443;-49
2023/08/09 05:34:03;;;;;;;10.00;2.57;;;13.10;1.00;;;;;;5113465;28;20184;-50
2023/08/09 05:36:30;;;;;;;4.27;2.10;;;13.20;1.00;;;;;;5113885;28;20445;-50
2023/08/09 05:38:55;;;;;;;9.70;2.43;;;13.30;99.90;;;;;;5111070;28;20465;-50
2023/08/09 05:41:21;;;;;;;8.03;2.40;;;13.50;99.90;;;;;;5113218;28;20509;-49
2023/08/09 05:43:47;;;;;;;6.17;2.53;;;13.60;99.90;;;;;;5110298;28;20549;-49
2023/08/09 05:46:12;;;;;;;6.57;2.47;;;13.60;1.00;;;;;;5111143;28;20221;-51
2023/08/09 05:48:38;;;;;;;8.80;3.03;;;13.80;99.90;;;;;;5108730;28;20192;-50
2023/08/09 05:51:03;;;;;;;6.10;1.90;;;14.00;1.00;;;;;;5102862;28;20237;-50
2023/08/09 05:53:29;;;;;;;10.67;2.50;;;14.20;1.00;;;;;;5105593;28;20185;-51
2023/08/09 05:55:54;;;;;;;10.30;2.40;;;14.40;1.00;;;;;;5104009;28;20651;-48
2023/08/09 05:58:20;;;;;;;5.13;2.13;;;14.60;99.90;;;;;;5110174;28;20253;-52
2023/08/09 06:00:46;;;;;;;9.90;2.10;;;14.80;99.90;;;;;;5108056;28;20200;-51
2023/08/09 06:03:12;;;;;;;4.97;1.97;;;14.90;99.90;;;;;;5110760;28;20228;-51
2023/08/09 06:05:38;;;;;;;19.37;2.37;;;14.80;99.90;;;;;;5112582;28;20288;-51
2023/08/09 06:08:04;;;;;;;3.53;2.10;;;14.70;99.90;;;;;;5108748;28;20436;-52
2023/08/09 06:10:29;;;;;;;4.13;2.07;;;14.70;99.90;;;;;;5113998;28;20466;-50
2023/08/09 06:12:55;;;;;;;3.93;1.60;;;14.60;99.90;;;;;;5113617;28;20199;-50
2023/08/09 06:15:21;;;;;;;11.23;2.13;;;14.70;99.90;;;;;;5114365;28;20190;-51
2023/08/09 06:17:47;;;;;;;6.63;2.03;;;15.00;99.90;;;;;;5114098;28;20178;-51
2023/08/09 06:20:13;;;;;;;7.40;2.67;;;15.20;99.90;;;;;;5113894;28;20508;-50
2023/08/09 06:22:42;;;;;;;4.90;1.90;;;15.30;99.90;;;;;;5113587;28;20330;-51
2023/08/09 06:25:09;;;;;;;6.70;2.60;;;15.50;94.10;;;;;;5095630;28;20465;-51
2023/08/09 06:27:35;;;;;;;8.93;2.10;;;15.70;49.90;;;;;;5116070;28;20417;-52
2023/08/09 06:30:00;;;;;;;10.27;2.10;;;15.90;48.60;;;;;;5117954;28;20454;-52
2023/08/09 06:32:27;;;;;;;5.30;1.80;;;16.00;23.80;;;;;;5117771;28;20432;-51
2023/08/09 06:34:52;;;;;;;7.90;1.80;;;16.20;1.00;;;;;;5118314;28;20186;-51
2023/08/09 06:37:18;;;;;;;7.73;2.30;;;16.20;1.00;;;;;;5117400;28;20422;-52
2023/08/09 06:39:44;;;;;;;8.07;1.80;;;16.10;1.00;;;;;;5117900;28;20215;-50
2023/08/09 06:42:12;;;;;;;6.77;2.07;;;16.10;1.00;;;;;;5118092;28;20293;-51
2023/08/09 06:44:39;;;;;;;4.03;1.60;;;16.00;1.00;;;;;;5117766;28;20516;-51
2023/08/09 06:47:05;;;;;;;12.27;2.00;;;16.10;1.00;;;;;;5117540;28;20427;-51
2023/08/09 06:49:31;;;;;;;4.13;1.60;;;16.30;2.70;;;;;;5117354;28;20788;-52
2023/08/09 06:51:58;;;;;;;12.77;2.80;;;16.40;1.00;;;;;;5117990;28;20425;-51
2023/08/09 06:54:24;;;;;;;7.90;2.20;;;16.70;1.00;;;;;;5117756;28;20529;-52
2023/08/09 06:56:50;;;;;;;5.10;1.60;;;17.00;1.00;;;;;;5117597;28;20482;-51
2023/08/09 06:59:16;;;;;;;7.97;1.70;;;17.10;1.00;;;;;;5117652;28;20421;-51
2023/08/09 07:01:44;;;;;;;9.13;2.10;;;17.20;1.00;;;;;;5117411;28;20414;-52
2023/08/09 07:04:09;;;;;;;10.27;2.30;;;17.40;1.00;;;;;;5117499;28;20420;-52
2023/08/09 07:06:35;;;;;;;6.00;1.57;;;17.30;1.00;;;;;;5117505;28;20805;-52
2023/08/09 07:09:01;;;;;;;3.43;1.50;;;17.30;1.00;;;;;;5117057;28;20275;-51
2023/08/09 07:11:26;;;;;;;6.77;1.87;;;17.50;1.00;;;;;;5117208;28;20652;-52
2023/08/09 07:13:52;;;;;;;4.33;1.93;;;17.60;1.00;;;;;;5117258;28;20192;-51
2023/08/09 07:16:18;;;;;;;8.73;2.20;;;17.70;1.00;;;;;;5117750;28;20184;-52
2023/08/09 07:18:44;;;;;;;9.43;1.83;;;18.00;1.00;;;;;;5117202;28;20567;-51
2023/08/09 07:21:09;;;;;;;5.47;1.90;;;18.30;1.00;;;;;;5116531;28;20236;-53
2023/08/09 07:23:35;;;;;;;5.17;1.80;;;18.40;1.00;;;;;;5116984;28;20204;-52
2023/08/09 07:26:00;;;;;;;4.33;1.83;;;18.10;1.00;;;;;;5116950;28;20203;-52
2023/08/09 07:28:26;;;;;;;3.73;2.10;;;17.70;1.00;;;;;;5116648;28;20181;-51
2023/08/09 07:30:52;;;;;;;12.03;1.70;;;17.60;1.00;;;;;;5116643;28;20176;-51
2023/08/09 07:33:21;;;;;;;7.83;1.90;;;17.80;1.00;;;;;;5116447;28;20526;-52
2023/08/09 07:35:48;;;;;;;7.00;1.90;;;18.20;1.00;;;;;;5116769;28;20500;-52
2023/08/09 07:38:14;;;;;;;7.23;1.53;;;18.50;1.00;;;;;;5115960;28;20454;-52
2023/08/09 07:40:40;;;;;;;11.20;2.20;;;18.50;1.00;;;;;;5116349;28;20823;-52
2023/08/09 07:43:06;;;;;;;7.17;2.00;;;18.30;1.00;;;;;;5116673;28;20454;-52
2023/08/09 07:45:32;;;;;;;4.70;2.23;;;18.10;1.00;;;;;;5116589;28;20180;-52
2023/08/09 07:47:57;;;;;;;8.83;2.60;;;18.00;1.00;;;;;;5116262;28;20440;-52
2023/08/09 07:50:23;;;;;;;9.83;2.20;;;17.60;1.00;;;;;;5116268;28;20175;-51
2023/08/09 07:52:49;;;;;;;7.30;2.00;;;17.80;1.00;;;;;;5096152;28;20188;-52
2023/08/09 07:55:14;;;;;;;3.97;1.60;;;18.30;1.00;;;;;;5095938;28;20181;-52
2023/08/09 07:57:40;;;;;;;4.30;1.40;;;18.40;1.00;;;;;;5096331;28;20189;-52
2023/08/09 08:00:17;;;;;;;5.73;1.80;;;18.10;1.00;;;;;;5096191;28;20182;-53
2023/08/09 08:02:43;;;;;;;6.17;1.70;;;17.80;1.00;;;;;;5095455;28;20706;-53
2023/08/09 08:05:13;;;;;;;4.57;1.63;;;17.50;1.00;;;;;;5095418;28;20907;-52
2023/08/09 08:07:39;;;;;;;6.03;2.00;;;16.90;1.00;;;;;;5095786;28;20416;-52
2023/08/09 08:10:08;;;;;;;5.60;1.90;;;16.60;1.00;;;;;;5095820;28;20572;-52
2023/08/09 08:12:35;;;;;;;8.13;1.83;;;16.60;17.40;;;;;;5096145;28;20749;-51
2023/08/09 08:15:01;;;;;;;4.43;1.83;;;17.30;1.00;;;;;;5115778;28;20478;-51
2023/08/09 08:17:27;;;;;;;4.67;1.70;;;18.20;1.00;;;;;;5115565;28;20817;-53
2023/08/09 08:19:53;;;;;;;3.93;1.90;;;18.60;1.00;;;;;;5115797;28;20204;-53
2023/08/09 08:22:18;;;;;;;3.53;1.70;;;19.00;1.00;;;;;;5115367;28;20319;-52
2023/08/09 08:24:44;;;;;;;4.83;1.67;;;19.50;1.00;;;;;;5115836;28;20519;-51
2023/08/09 08:27:10;;;;;;;5.27;1.53;;;19.80;1.00;;;;;;5115249;28;20228;-52
2023/08/09 08:29:36;;;;;;;4.20;1.70;;;20.10;1.00;;;;;;5116013;28;20323;-52
2023/08/09 08:32:01;;;;;;;7.13;1.63;;;20.20;1.00;;;;;;5116150;28;20572;-52
2023/08/09 08:34:31;;;;;;;4.33;1.83;;;20.20;1.00;;;;;;5115562;28;20184;-53
2023/08/09 08:36:58;;;;;;;3.90;1.67;;;20.40;1.00;;;;;;5115744;28;20175;-53
2023/08/09 08:39:23;;;;;;;5.23;1.80;;;20.30;1.00;;;;;;5115438;28;20901;-52
2023/08/09 08:41:50;;;;;;;6.93;1.70;;;19.80;1.00;;;;;;5115157;28;20466;-53
2023/08/09 08:44:16;;;;;;;7.63;2.00;;;19.40;1.00;;;;;;5115478;28;20275;-52
2023/08/09 08:46:42;;;;;;;5.67;1.70;;;19.70;1.00;;;;;;5115093;28;20762;-53
2023/08/09 08:49:12;;;;;;;6.13;2.17;;;20.10;1.00;;;;;;5115386;28;20505;-53
2023/08/09 08:51:39;;;;;;;9.57;1.80;;;20.30;1.00;;;;;;5115158;28;20458;-54
2023/08/09 08:54:06;;;;;;;7.60;2.20;;;20.20;1.00;;;;;;5115630;28;20428;-53
2023/08/09 08:56:32;;;;;;;4.80;1.80;;;20.00;1.00;;;;;;5115207;28;20441;-52
2023/08/09 08:59:00;;;;;;;7.00;1.60;;;19.90;1.00;;;;;;5114925;28;20901;-52
2023/08/09 09:01:26;;;;;;;6.63;1.77;;;19.70;1.00;;;;;;5114802;28;20885;-53
2023/08/09 09:03:51;;;;;;;7.97;1.97;;;19.50;1.00;;;;;;5114766;28;20488;-52
2023/08/09 09:06:17;;;;;;;7.43;1.97;;;19.20;1.00;;;;;;5114873;28;20274;-53
2023/08/09 09:08:44;;;;;;;6.80;1.90;;;18.90;1.00;;;;;;5115020;28;20178;-53
2023/08/09 09:11:18;;;;;;;3.40;1.73;;;18.80;1.00;;;;;;5114984;28;20259;-53
2023/08/09 09:13:46;;;;;;;9.47;2.07;;;19.30;1.00;;;;;;5115201;28;20924;-52
2023/08/09 09:16:13;;;;;;;4.40;1.70;;;19.30;1.00;;;;;;5114981;28;20417;-52
2023/08/09 09:18:43;;;;;;;6.73;1.67;;;19.30;1.00;;;;;;5114824;28;20446;-52
2023/08/09 09:21:11;;;;;;;3.97;1.73;;;19.20;1.00;;;;;;5114623;28;20482;-53
2023/08/09 09:23:38;;;;;;;3.53;1.30;;;19.20;1.00;;;;;;5114849;28;20458;-52
2023/08/09 09:26:08;;;;;;;5.03;1.73;;;19.40;1.00;;;;;;5114541;28;20793;-52
2023/08/09 09:28:42;;;;;;;5.80;1.93;;;19.30;1.00;;;;;;5114666;28;20788;-52
2023/08/09 09:31:13;;;;;;;7.60;1.73;;;19.20;1.00;;;;;;5114211;28;20448;-53
2023/08/09 09:33:43;;;;;;;5.33;1.73;;;19.00;1.00;;;;;;5114592;28;20801;-52
2023/08/09 09:36:12;;;;;;;7.00;2.10;;;18.90;1.00;;;;;;5114661;28;20406;-53
2023/08/09 09:38:39;;;;;;;8.67;2.00;;;19.10;1.00;;;;;;5114514;28;20419;-53
2023/08/09 09:41:07;;;;;;;4.03;1.37;;;19.00;1.00;;;;;;5114671;28;20415;-52
2023/08/09 09:43:35;;;;;;;10.63;1.90;;;19.30;1.00;;;;;;5114648;28;20472;-52
2023/08/09 09:46:00;;;;;;;7.63;1.77;;;19.80;1.00;;;;;;5114894;28;20414;-53
2023/08/09 09:48:27;;;;;;;5.60;1.90;;;20.60;1.00;;;;;;5114423;28;20432;-52
2023/08/09 09:50:54;;;;;;;6.93;2.30;;;21.10;1.00;;;;;;5114742;28;20241;-52
2023/08/09 09:53:20;;;;;;;8.17;1.60;;;21.50;1.00;;;;;;5114312;28;20406;-53
2023/08/09 09:55:46;;;;;;;4.83;1.60;;;21.50;1.00;;;;;;5114680;28;20502;-52
2023/08/09 09:58:12;;;;;;;6.33;1.70;;;21.50;1.00;;;;;;5113673;28;20502;-52
2023/08/09 10:00:44;;;;;;;5.43;1.47;;;21.80;1.00;;;;;;5114290;28;20176;-53
2023/08/09 10:03:11;;;;;;;12.40;2.83;;;21.70;1.00;;;;;;5117575;28;20450;-52
2023/08/09 10:05:38;;;;;;;5.53;2.00;;;21.40;1.00;;;;;;5118403;28;21042;-52
2023/08/09 10:08:12;;;;;;;6.90;2.07;;;21.40;1.00;;;;;;5118286;28;20426;-52
2023/08/09 10:10:41;;;;;;;6.30;1.73;;;21.60;1.00;;;;;;5118408;28;20430;-52
2023/08/09 10:13:07;;;;;;;7.60;2.03;;;21.90;1.00;;;;;;5118853;28;20701;-52
2023/08/09 10:15:46;;;;;;;7.10;1.97;;;22.30;1.00;;;;;;5118577;28;20407;-53
2023/08/09 10:18:42;;;;;;;6.73;1.83;;;22.60;1.00;;;;;;5118378;28;20406;-53
2023/08/09 10:21:10;;;;;;;5.73;1.63;;;22.80;1.00;;;;;;5116508;28;20558;-53
2023/08/09 10:23:36;;;;;;;4.17;1.63;;;22.90;1.00;;;;;;5118035;28;20458;-53
2023/08/09 10:26:02;;;;;;;10.53;1.93;;;22.50;1.00;;;;;;5117457;28;20433;-53
2023/08/09 10:28:42;;;;;;;9.20;2.07;;;22.10;1.00;;;;;;5117855;28;20181;-54
2023/08/09 10:31:07;;;;;;;5.20;1.90;;;22.10;1.00;;;;;;5118078;28;20429;-53
2023/08/09 10:33:33;;;;;;;11.93;1.60;;;21.90;1.00;;;;;;5118005;28;20411;-53
2023/08/09 10:35:59;;;;;;;6.47;1.73;;;21.90;1.00;;;;;;5117783;28;20584;-53
2023/08/09 10:38:30;;;;;;;6.77;1.83;;;21.10;1.00;;;;;;5117759;28;20179;-53
2023/08/09 10:40:56;;;;;;;7.60;1.70;;;20.60;1.00;;;;;;5117641;28;20711;-54
2023/08/09 10:43:24;;;;;;;10.83;1.77;;;20.00;1.00;;;;;;5117678;28;20582;-54
2023/08/09 10:45:53;;;;;;;4.53;1.60;;;19.30;1.00;;;;;;5117511;28;20192;-54
2023/08/09 10:48:23;;;;;;;6.90;1.70;;;19.60;1.00;;;;;;5117644;28;20414;-53
2023/08/09 10:51:07;;;;;;;7.17;1.70;;;20.60;1.00;;;;;;5118142;28;20416;-54
2023/08/09 10:53:58;;;;;;;5.47;1.53;;;20.70;1.00;;;;;;5117438;28;20511;-54
2023/08/09 10:56:42;;;;;;;7.67;1.87;;;20.70;1.00;;;;;;5117867;28;20399;-53
2023/08/09 10:59:22;;;;;;;4.43;1.83;;;21.70;1.00;;;;;;5117562;28;20895;-54
2023/08/09 11:01:49;;;;;;;5.95;1.50;;;22.00;1.00;;;;;;5117848;28;20421;-54
2023/08/09 11:04:18;;;;;;;11.37;1.87;;;22.10;1.00;;;;;;5116710;28;20433;-53
2023/08/09 11:06:46;;;;;;;4.00;1.53;;;22.40;1.00;;;;;;5113289;28;20477;-53
2023/08/09 11:09:15;;;;;;;9.50;2.37;;;23.10;1.00;;;;;;5117216;28;20524;-52
2023/08/09 11:11:42;;;;;;;8.60;2.00;;;23.60;1.00;;;;;;5117384;28;20419;-51
2023/08/09 11:14:11;;;;;;;6.53;1.50;;;24.30;1.00;;;;;;5092753;28;20523;-51
2023/08/09 11:16:37;;;;;;;4.23;1.67;;;23.70;1.00;;;;;;5096730;28;20411;-54
2023/08/09 11:19:04;;;;;;;5.30;1.33;;;23.10;1.00;;;;;;5097149;28;20420;-54
2023/08/09 11:21:49;;;;;;;5.67;1.73;;;22.70;1.00;;;;;;5104067;28;20528;-53
2023/08/09 11:24:17;;;;;;;9.10;2.00;;;22.90;1.00;;;;;;5107247;28;20824;-52
2023/08/09 11:26:54;;;;;;;11.27;1.93;;;23.70;1.00;;;;;;5099412;28;20421;-52
2023/08/09 11:29:21;;;;;;;8.60;2.10;;;24.60;1.00;;;;;;5110541;28;20410;-52
2023/08/09 11:31:55;;;;;;;3.73;1.70;;;25.10;1.00;;;;;;5115390;28;20427;-52
2023/08/09 11:34:22;;;;;;;6.63;1.80;;;25.20;1.00;;;;;;5109702;28;20911;-53
2023/08/09 11:36:50;;;;;;;8.57;1.43;;;25.00;1.00;;;;;;5115151;28;20414;-53
2023/08/09 11:39:16;;;;;;;10.40;1.80;;;24.20;1.00;;;;;;5099934;28;20804;-53
2023/08/09 11:41:54;;;;;;;5.67;1.50;;;23.80;1.00;;;;;;5095901;28;20427;-53
2023/08/09 11:44:43;;;;;;;4.47;1.40;;;24.20;1.00;;;;;;5095969;28;20423;-53
2023/08/09 11:47:09;;;;;;;7.57;1.70;;;24.10;1.00;;;;;;5111139;28;20407;-53
2023/08/09 11:49:35;;;;;;;3.43;1.60;;;24.00;1.00;;;;;;5086756;28;20946;-53
2023/08/09 11:52:01;;;;;;;1.77;1.20;;;24.40;1.00;;;;;;5095484;28;20419;-53
2023/08/09 11:54:28;;;;;;;9.50;1.50;;;24.40;1.00;;;;;;5110442;28;20211;-53
2023/08/09 11:56:54;;;;;;;3.83;1.50;;;24.40;1.00;;;;;;5114556;28;20434;-53
2023/08/09 11:59:22;;;;;;;6.00;1.63;;;25.00;1.00;;;;;;5116253;28;20763;-53
2023/08/09 12:01:50;;;;;;;4.80;1.40;;;25.40;1.00;;;;;;5112885;28;20859;-50
2023/08/09 12:04:19;;;;;;;7.20;1.70;;;26.00;1.00;;;;;;5116026;27;20430;-51
2023/08/09 12:06:55;;;;;;;5.93;1.80;;;25.70;1.00;;;;;;5136410;27;20424;-51
2023/08/09 12:09:37;;;;;;;6.30;1.93;;;23.70;1.00;;;;;;5118964;27;20433;-54
2023/08/09 12:12:33;;;;;;;3.57;1.50;;;21.80;1.00;;;;;;5113191;28;20442;-53
2023/08/09 12:14:59;;;;;;;2.60;1.50;;;20.20;1.00;;;;;;5112619;28;20783;-54
2023/08/09 12:17:27;;;;;;;3.90;1.40;;;19.20;1.00;;;;;;5115730;28;20433;-53
2023/08/09 12:19:57;;;;;;;2.90;1.40;;;18.60;1.00;;;;;;5114966;28;20193;-53
2023/08/09 12:22:25;;;;;;;5.33;1.40;;;18.30;1.00;;;;;;5115967;28;20474;-52
2023/08/09 12:24:51;;;;;;;4.03;1.20;;;18.10;1.00;;;;;;5115642;28;20407;-54
2023/08/09 12:27:19;;;;;;;4.47;1.80;;;18.20;1.00;;;;;;5115954;28;20432;-52
2023/08/09 12:29:45;;;;;;;5.37;1.50;;;18.60;1.00;;;;;;5115317;28;20452;-53
2023/08/09 12:32:11;;;;;;;4.10;1.63;;;20.20;1.00;;;;;;5115493;28;20430;-52
2023/08/09 12:34:37;;;;;;;3.83;1.40;;;22.20;1.00;;;;;;5114662;28;20425;-53
2023/08/09 12:37:02;;;;;;;8.27;1.60;;;23.00;1.00;;;;;;5119346;27;20190;-52
2023/08/09 12:39:28;;;;;;;3.80;1.50;;;23.40;1.00;;;;;;5134739;27;20521;-52
2023/08/09 12:41:53;;;;;;;5.27;1.60;;;23.50;1.00;;;;;;5118856;27;20192;-52
2023/08/09 12:44:19;;;;;;;4.13;1.30;;;23.20;1.00;;;;;;5119164;27;20181;-51
2023/08/09 12:46:45;;;;;;;3.03;1.20;;;22.60;1.00;;;;;;5115381;28;20236;-51
2023/08/09 12:49:10;;;;;;;3.23;1.27;;;22.40;1.00;;;;;;5115468;28;20521;-51
2023/08/09 12:51:38;;;;;;;5.60;1.70;;;22.80;1.00;;;;;;5115632;28;20217;-51
2023/08/09 12:54:04;;;;;;;2.10;1.43;;;23.50;1.00;;;;;;5115033;28;20189;-51